Time;durP1;ratioP1;P1;durP2;ratioP2;P2;SDS_P1;SDS_P2;PMS_P1;PMS_P2;Temp;Humidity;BMP_temperature;BMP_pressure;BME280_temperature;BME280_humidity;BME280_pressure;Samples;Min_cycle;Max_cycle;Signal;HPM_P1;HPM_P2
2022/06/13 00:00:48;;;;;;;3.45;2.41;;;;;;;21.55;58.30;100335.48;457379;116;922620;-75
2022/06/13 00:01:51;;;;;;;2.79;2.16;;;;;;;21.56;58.33;100336.28;457401;115;922460;-75
2022/06/13 00:02:55;;;;;;;2.30;2.09;;;;;;;21.54;58.32;100330.23;457441;115;922557;-75
2022/06/13 00:03:59;;;;;;;2.90;2.42;;;;;;;21.51;58.34;100331.63;457429;115;922507;-75
2022/06/13 00:05:05;;;;;;;2.83;2.39;;;;;;;21.48;58.32;100331.39;457268;115;922609;-75
2022/06/13 00:06:09;;;;;;;3.58;2.58;;;;;;;21.44;58.45;100330.34;457166;116;930847;-75
2022/06/13 00:07:12;;;;;;;3.54;2.81;;;;;;;21.40;58.44;100334.79;457401;113;922636;-75
2022/06/13 00:08:15;;;;;;;4.92;3.71;;;;;;;21.37;58.58;100333.45;457491;116;922692;-74
2022/06/13 00:09:18;;;;;;;5.67;5.14;;;;;;;21.36;58.67;100336.50;457426;116;922549;-75
2022/06/13 00:10:22;;;;;;;7.56;6.50;;;;;;;21.35;58.73;100332.07;457322;115;922598;-75
2022/06/13 00:11:26;;;;;;;10.55;9.14;;;;;;;21.33;58.73;100340.70;457322;116;931040;-76
2022/06/13 00:12:29;;;;;;;12.08;10.21;;;;;;;21.33;58.84;100335.16;457322;113;922984;-76
2022/06/13 00:13:32;;;;;;;12.48;9.97;;;;;;;21.31;58.92;100339.33;457306;116;930134;-74
2022/06/13 00:14:35;;;;;;;11.76;9.91;;;;;;;21.31;59.08;100342.10;457429;115;922521;-74
2022/06/13 00:15:38;;;;;;;14.82;12.22;;;;;;;21.29;59.15;100339.61;457389;115;923022;-75
2022/06/13 00:16:41;;;;;;;13.21;11.92;;;;;;;21.29;59.29;100341.55;457288;116;922691;-75
2022/06/13 00:17:45;;;;;;;13.75;12.21;;;;;;;21.27;59.51;100344.64;457399;115;922545;-74
2022/06/13 00:18:48;;;;;;;15.24;12.10;;;;;;;21.27;59.53;100344.64;457411;116;922677;-75
2022/06/13 00:19:52;;;;;;;15.86;13.58;;;;;;;21.26;59.68;100342.98;457358;116;922609;-75
2022/06/13 00:20:55;;;;;;;17.37;13.34;;;;;;;21.26;59.83;100342.15;457417;116;923100;-75
2022/06/13 00:21:58;;;;;;;13.77;12.36;;;;;;;21.26;59.94;100342.98;457296;113;923203;-75
2022/06/13 00:23:02;;;;;;;15.79;12.86;;;;;;;21.23;60.03;100340.77;457360;116;930784;-75
2022/06/13 00:24:07;;;;;;;15.28;13.40;;;;;;;21.23;60.17;100347.15;457438;116;923168;-75
2022/06/13 00:25:10;;;;;;;14.26;12.88;;;;;;;21.23;60.30;100342.75;457208;116;922719;-75
2022/06/13 00:26:15;;;;;;;14.24;12.87;;;;;;;21.23;60.38;100344.38;457038;115;922585;-75
2022/06/13 00:27:18;;;;;;;15.09;13.74;;;;;;;21.23;60.50;100339.97;457340;113;922475;-75
2022/06/13 00:28:21;;;;;;;16.28;13.66;;;;;;;21.22;60.54;100339.14;457419;116;922675;-75
2022/06/13 00:29:24;;;;;;;13.92;12.56;;;;;;;21.20;60.67;100339.42;457655;115;922544;-75
2022/06/13 00:30:27;;;;;;;13.91;12.36;;;;;;;21.19;60.80;100343.31;457429;116;922708;-75
2022/06/13 00:31:30;;;;;;;13.53;12.25;;;;;;;21.18;60.90;100338.87;457364;115;922656;-76
2022/06/13 00:32:33;;;;;;;13.61;12.17;;;;;;;21.14;61.02;100343.36;457371;113;922543;-75
2022/06/13 00:33:36;;;;;;;12.93;11.63;;;;;;;21.13;61.16;100338.89;457403;113;922504;-75
2022/06/13 00:34:40;;;;;;;14.58;12.57;;;;;;;21.12;61.27;100341.95;457357;116;922528;-76
2022/06/13 00:35:43;;;;;;;12.97;11.75;;;;;;;21.11;61.38;100340.31;457404;116;922574;-75
2022/06/13 00:36:46;;;;;;;12.19;10.74;;;;;;;21.09;61.56;100332.28;457420;113;922505;-75
2022/06/13 00:37:48;;;;;;;12.59;11.30;;;;;;;21.07;61.67;100342.82;457433;116;922596;-75
2022/06/13 00:38:52;;;;;;;12.13;10.99;;;;;;;21.05;61.78;100345.08;457427;116;922573;-75
2022/06/13 00:39:55;;;;;;;12.23;10.84;;;;;;;21.03;61.95;100344.53;457321;116;922545;-74
2022/06/13 00:40:59;;;;;;;11.77;10.42;;;;;;;21.01;62.08;100352.30;457369;116;922983;-76
2022/06/13 00:42:02;;;;;;;12.19;10.70;;;;;;;20.99;62.20;100346.23;458711;115;922850;-76
2022/06/13 00:43:06;;;;;;;15.83;10.38;;;;;;;20.99;62.33;100351.78;458894;115;922911;-75
2022/06/13 00:44:15;;;;;;;10.86;8.86;;;;;;;20.98;62.45;100347.34;445880;118;922573;-74
2022/06/13 00:45:25;;;;;;;11.71;10.50;;;;;;;20.98;62.62;100352.05;433455;120;923145;-75
2022/06/13 00:46:34;;;;;;;11.47;9.89;;;;;;;20.97;62.75;100342.91;455039;116;922531;-76
2022/06/13 00:47:40;;;;;;;12.52;9.64;;;;;;;20.96;62.85;100344.02;455056;116;922582;-75
2022/06/13 00:48:43;;;;;;;9.67;8.84;;;;;;;20.96;62.98;100349.56;455039;116;922641;-75
2022/06/13 00:49:46;;;;;;;10.17;9.11;;;;;;;20.94;63.09;100346.27;453334;116;922638;-76
2022/06/13 00:50:53;;;;;;;8.88;8.06;;;;;;;20.93;63.18;100347.38;447431;118;930575;-75
2022/06/13 00:52:06;;;;;;;9.22;8.29;;;;;;;20.93;63.31;100343.78;447284;116;922871;-73
2022/06/13 00:53:12;;;;;;;9.62;8.79;;;;;;;20.92;63.41;100350.44;447131;118;923167;-75
2022/06/13 00:54:17;;;;;;;9.98;9.04;;;;;;;20.91;63.51;100349.60;447353;118;922643;-75
2022/06/13 00:55:30;;;;;;;10.00;8.97;;;;;;;20.91;63.64;100349.60;447335;118;922613;-74
2022/06/13 00:56:40;;;;;;;10.17;8.83;;;;;;;21.02;63.79;100353.13;476811;110;947073;-75
2022/06/13 00:57:43;;;;;;;12.02;9.14;;;;;;;20.89;63.89;100349.09;458322;115;922597;-75
2022/06/13 00:58:50;;;;;;;9.46;8.61;;;;;;;20.89;64.09;100349.09;458227;115;923171;-75
2022/06/13 00:59:56;;;;;;;8.87;8.09;;;;;;;20.89;64.18;100348.26;457277;115;922475;-76
2022/06/13 01:00:59;;;;;;;10.51;8.35;;;;;;;20.89;64.22;100351.86;457261;116;922752;-75
2022/06/13 01:02:03;;;;;;;10.06;9.13;;;;;;;20.89;64.41;100354.63;457374;114;923359;-76
2022/06/13 01:03:07;;;;;;;10.18;9.10;;;;;;;20.89;64.35;100349.09;457405;115;922570;-75
2022/06/13 01:04:10;;;;;;;9.69;8.84;;;;;;;20.89;64.45;100353.80;457519;116;923063;-75
2022/06/13 01:05:20;;;;;;;9.81;8.78;;;;;;;20.87;64.53;100351.30;457583;116;922593;-74
2022/06/13 01:06:26;;;;;;;9.44;8.57;;;;;;;20.86;64.61;100355.19;457659;116;922628;-74
2022/06/13 01:07:29;;;;;;;9.36;8.47;;;;;;;20.84;64.76;100339.98;456216;114;923028;-75
2022/06/13 01:08:35;;;;;;;9.83;8.92;;;;;;;20.83;64.85;100346.64;458416;114;923196;-75
2022/06/13 01:11:17;;;;;;;9.03;8.06;;;;;;;20.83;65.12;100350.23;458484;114;923177;-75
2022/06/13 01:12:20;;;;;;;10.06;7.86;;;;;;;20.84;65.25;100348.30;460673;114;922535;-75
2022/06/13 01:13:25;;;;;;;8.63;7.86;;;;;;;20.84;65.45;100340.78;457522;116;922494;-74
2022/06/13 01:14:47;;;;;;;9.82;8.68;;;;;;;20.84;65.54;100342.75;449838;116;922533;-74
2022/06/13 01:16:05;;;;;;;13.52;8.48;;;;;;;20.85;65.74;100341.61;454432;114;922858;-74
2022/06/13 01:17:28;;;;;;;8.41;7.61;;;;;;;20.85;65.82;100342.44;454307;116;923467;-75
2022/06/13 01:19:02;;;;;;;8.19;7.47;;;;;;;20.85;66.08;100345.21;456333;115;922586;-76
2022/06/13 01:20:28;;;;;;;7.91;6.72;;;;;;;20.83;66.31;100349.41;457079;116;922891;-76
2022/06/13 01:21:53;;;;;;;7.39;6.66;;;;;;;20.82;66.60;100340.27;457082;116;923001;-74
2022/06/13 01:23:09;;;;;;;7.27;6.40;;;;;;;20.84;66.80;100338.01;453631;116;923003;-76
2022/06/13 01:24:44;;;;;;;7.92;7.19;;;;;;;20.86;67.02;100340.50;453728;117;923184;-74
2022/06/13 01:26:16;;;;;;;7.68;6.28;;;;;;;20.86;66.95;100346.88;457846;114;923374;-75
2022/06/13 01:27:29;;;;;;;7.06;6.35;;;;;;;20.87;66.98;100342.16;457815;114;922521;-74
2022/06/13 01:28:47;;;;;;;6.17;5.65;;;;;;;20.86;67.12;100346.05;456826;114;922572;-74
2022/06/13 01:30:05;;;;;;;6.42;5.81;;;;;;;20.86;67.21;100346.88;449463;116;923210;-76
2022/06/13 01:31:27;;;;;;;7.67;6.47;;;;;;;20.87;67.22;100348.53;445899;118;923098;-75
2022/06/13 01:32:43;;;;;;;6.63;5.97;;;;;;;20.87;67.25;100348.53;446945;116;922624;-75
2022/06/13 01:34:07;;;;;;;7.03;6.28;;;;;;;20.88;67.41;100346.59;449240;113;922550;-75
2022/06/13 01:35:25;;;;;;;6.38;5.84;;;;;;;20.88;67.69;100344.66;449457;117;923589;-75
2022/06/13 01:36:35;;;;;;;6.43;5.62;;;;;;;20.89;67.74;100353.80;454782;116;922664;-75
2022/06/13 01:37:42;;;;;;;6.27;5.69;;;;;;;20.91;67.94;100352.37;455829;115;922634;-75
2022/06/13 01:39:03;;;;;;;6.28;5.62;;;;;;;20.93;68.00;100358.47;456424;116;922691;-74
2022/06/13 01:40:16;;;;;;;7.59;5.56;;;;;;;20.93;67.87;100352.92;457354;116;922532;-77
2022/06/13 01:41:28;;;;;;;6.58;5.97;;;;;;;20.94;67.83;100356.53;456323;115;923077;-75
2022/06/13 01:42:35;;;;;;;5.28;4.79;;;;;;;20.95;68.00;100352.65;457046;114;922549;-75
2022/06/13 01:43:48;;;;;;;6.22;5.58;;;;;;;20.96;68.07;100360.65;454933;115;922621;-74
2022/06/13 01:45:01;;;;;;;6.81;5.50;;;;;;;20.98;68.18;100358.43;454875;116;923042;-76
2022/06/13 01:46:07;;;;;;;5.82;5.33;;;;;;;21.01;68.33;100371.70;456036;116;922809;-74
2022/06/13 01:47:14;;;;;;;7.56;5.66;;;;;;;21.04;68.45;100367.53;457323;114;922681;-74
2022/06/13 01:48:43;;;;;;;6.90;5.96;;;;;;;21.06;68.46;100368.08;457269;116;922984;-75
2022/06/13 01:49:53;;;;;;;7.33;5.49;;;;;;;21.06;68.34;100365.31;457303;115;922636;-75
2022/06/13 01:51:21;;;;;;;6.22;5.43;;;;;;;21.06;68.38;100366.11;457352;115;923207;-75
2022/06/13 01:52:30;;;;;;;5.70;5.18;;;;;;;21.04;68.26;100368.37;457278;114;922490;-76
2022/06/13 01:53:49;;;;;;;7.28;5.31;;;;;;;21.03;68.08;100368.64;455576;115;923064;-74
2022/06/13 01:55:04;;;;;;;6.04;5.43;;;;;;;21.00;68.11;100370.06;456223;115;923002;-75
2022/06/13 01:56:11;;;;;;;5.59;5.09;;;;;;;20.99;68.40;100368.41;455686;115;922564;-76
2022/06/13 01:57:33;;;;;;;5.44;4.59;;;;;;;21.00;68.64;100369.23;455525;116;922790;-74
2022/06/13 01:58:45;;;;;;;5.60;5.14;;;;;;;21.02;68.60;100370.59;455531;116;922573;-74
2022/06/13 02:00:06;;;;;;;5.48;4.97;;;;;;;21.01;68.58;100368.92;455466;116;923018;-76
2022/06/13 02:01:34;;;;;;;5.37;4.86;;;;;;;20.99;68.53;100362.86;455513;116;923016;-76
2022/06/13 02:02:52;;;;;;;5.55;5.04;;;;;;;20.96;68.51;100366.19;455542;116;922539;-75
2022/06/13 02:04:02;;;;;;;5.74;5.09;;;;;;;20.93;68.62;100366.78;455581;116;922717;-75
2022/06/13 02:05:09;;;;;;;6.44;4.93;;;;;;;20.91;68.93;100376.48;453720;116;922969;-75
2022/06/13 02:06:16;;;;;;;6.27;5.78;;;;;;;20.92;69.15;100376.21;452902;116;922538;-75
2022/06/13 02:07:26;;;;;;;5.28;4.81;;;;;;;20.94;69.38;100373.98;455483;116;923095;-75
2022/06/13 02:08:35;;;;;;;4.84;4.44;;;;;;;20.97;69.44;100372.56;455424;116;923070;-75
2022/06/13 02:09:42;;;;;;;4.68;4.19;;;;;;;20.99;69.21;100386.98;454429;116;922758;-76
2022/06/13 02:10:49;;;;;;;5.25;4.77;;;;;;;20.99;69.14;100367.58;455486;116;922622;-75
2022/06/13 02:11:55;;;;;;;5.52;4.92;;;;;;;21.01;69.14;100381.95;455488;116;922686;-75
2022/06/13 02:13:01;;;;;;;4.12;3.82;;;;;;;21.03;69.30;100383.34;455463;116;922624;-75
2022/06/13 02:14:17;;;;;;;4.72;4.31;;;;;;;21.06;69.18;100376.41;454852;116;922618;-75
2022/06/13 02:15:26;;;;;;;4.88;4.13;;;;;;;21.08;69.02;100379.69;455420;116;922592;-75
2022/06/13 02:16:32;;;;;;;5.23;4.18;;;;;;;21.09;69.02;100379.41;455068;116;922592;-75
2022/06/13 02:17:54;;;;;;;4.85;4.33;;;;;;;21.12;68.86;100384.36;455100;116;922609;-75
2022/06/13 02:19:13;;;;;;;4.87;4.31;;;;;;;21.13;68.84;100385.19;450057;116;923300;-74
2022/06/13 02:20:20;;;;;;;4.67;4.21;;;;;;;21.14;68.68;100376.63;455513;116;922688;-74
2022/06/13 02:21:27;;;;;;;4.00;3.28;;;;;;;21.14;68.69;100381.31;455457;116;922606;-74
2022/06/13 02:22:51;;;;;;;4.58;3.35;;;;;;;21.12;68.69;100384.36;455080;116;922896;-75
2022/06/13 02:23:57;;;;;;;3.98;3.56;;;;;;;21.10;68.62;100380.24;455439;116;922645;-75
2022/06/13 02:25:19;;;;;;;4.53;3.99;;;;;;;21.07;68.62;100380.80;446506;118;922905;-74
2022/06/13 02:26:25;;;;;;;4.02;2.99;;;;;;;21.04;68.70;100373.91;446500;118;922979;-75
2022/06/13 02:27:32;;;;;;;4.30;3.02;;;;;;;20.98;68.81;100379.77;447094;118;923330;-74
2022/06/13 02:28:41;;;;;;;3.11;2.81;;;;;;;20.91;69.26;100379.27;438675;121;922472;-75
2022/06/13 02:29:51;;;;;;;3.38;3.07;;;;;;;20.85;69.49;100381.23;434838;121;923066;-74
2022/06/13 02:31:06;;;;;;;3.38;2.99;;;;;;;20.82;69.68;100384.60;440801;119;922520;-75
2022/06/13 02:32:23;;;;;;;3.97;2.97;;;;;;;20.89;69.97;100374.03;472125;110;1195074;-75
2022/06/13 02:33:32;;;;;;;3.03;2.76;;;;;;;20.78;69.99;100377.98;465184;114;930405;-74
2022/06/13 02:34:39;;;;;;;3.82;2.54;;;;;;;20.77;69.75;100379.09;465320;114;922543;-75
2022/06/13 02:35:52;;;;;;;2.43;2.25;;;;;;;20.74;69.76;100377.71;465429;114;923064;-74
2022/06/13 02:37:17;;;;;;;5.40;2.62;;;;;;;20.73;69.98;100383.56;465173;113;922622;-74
2022/06/13 02:38:29;;;;;;;4.16;2.80;;;;;;;20.72;69.99;100381.90;465408;114;922672;-74
2022/06/13 02:39:42;;;;;;;2.98;2.65;;;;;;;20.73;69.97;100378.02;458858;114;923084;-73
2022/06/13 02:40:49;;;;;;;2.97;2.73;;;;;;;20.73;69.93;100372.48;465384;114;923080;-76
2022/06/13 02:42:07;;;;;;;3.72;2.85;;;;;;;20.74;69.91;100379.65;464420;113;922791;-75
2022/06/13 02:43:20;;;;;;;3.38;3.07;;;;;;;20.73;69.77;100373.28;459248;114;923019;-74
2022/06/13 02:44:30;;;;;;;4.98;2.83;;;;;;;20.70;69.88;100371.09;465342;114;922678;-76
2022/06/13 02:45:45;;;;;;;3.96;2.81;;;;;;;20.69;69.83;100371.38;465243;114;922553;-75
2022/06/13 02:46:57;;;;;;;3.67;2.95;;;;;;;20.67;69.81;100371.69;463060;114;922686;-75
2022/06/13 02:48:04;;;;;;;3.39;3.05;;;;;;;20.65;69.85;100376.67;465386;114;922989;-75
2022/06/13 02:49:22;;;;;;;4.33;2.92;;;;;;;20.63;70.07;100378.89;465391;114;922632;-74
2022/06/13 02:50:38;;;;;;;3.87;3.44;;;;;;;20.62;70.20;100370.89;465222;114;922606;-75
2022/06/13 02:52:18;;;;;;;5.14;3.64;;;;;;;20.64;70.28;100368.64;465371;114;922660;-74
2022/06/13 02:53:37;;;;;;;5.08;3.51;;;;;;;20.63;70.34;100367.80;464658;114;922655;-75
2022/06/13 02:54:53;;;;;;;4.87;3.28;;;;;;;20.60;70.44;100362.85;465355;114;923004;-75
2022/06/13 02:56:05;;;;;;;3.38;2.89;;;;;;;20.54;70.55;100369.53;464098;114;922837;-75
2022/06/13 02:57:35;;;;;;;3.76;2.79;;;;;;;20.51;70.78;100363.75;465366;114;922509;-74
2022/06/13 02:58:48;;;;;;;4.16;3.22;;;;;;;20.49;70.92;100361.25;465460;114;922571;-74
2022/06/13 03:00:17;;;;;;;3.84;3.04;;;;;;;20.48;71.01;100364.30;456044;114;923056;-74
2022/06/13 03:01:26;;;;;;;2.89;2.68;;;;;;;20.48;71.08;100362.36;465115;114;922530;-76
2022/06/13 03:02:43;;;;;;;4.77;2.77;;;;;;;20.51;71.27;100372.06;464915;113;922519;-76
2022/06/13 03:03:55;;;;;;;3.28;2.92;;;;;;;20.53;71.28;100373.41;465306;114;930554;-75
2022/06/13 03:05:05;;;;;;;6.08;3.46;;;;;;;20.55;71.37;100370.36;465288;114;923045;-75
2022/06/13 03:06:21;;;;;;;3.01;2.76;;;;;;;20.59;71.53;100371.44;465279;114;922477;-74
2022/06/13 03:07:33;;;;;;;3.24;2.92;;;;;;;20.64;71.62;100374.18;465358;114;922547;-74
2022/06/13 03:08:43;;;;;;;3.41;3.09;;;;;;;20.69;71.67;100365.83;465373;114;923173;-75
2022/06/13 03:09:56;;;;;;;3.08;2.73;;;;;;;20.74;71.71;100369.40;465377;114;922864;-74
2022/06/13 03:11:19;;;;;;;3.64;3.32;;;;;;;20.79;71.75;100368.53;465377;114;922644;-75
2022/06/13 03:12:31;;;;;;;3.73;2.76;;;;;;;20.84;71.62;100362.16;465369;114;922701;-74
2022/06/13 03:13:55;;;;;;;2.69;2.46;;;;;;;20.87;71.26;100365.16;455933;114;922902;-76
2022/06/13 03:15:19;;;;;;;3.49;2.33;;;;;;;20.88;70.77;100360.45;465382;114;922602;-75
2022/06/13 03:16:29;;;;;;;3.05;2.73;;;;;;;20.90;70.68;100358.20;465267;114;922520;-74
2022/06/13 03:17:41;;;;;;;3.41;2.64;;;;;;;20.90;70.47;100359.03;465265;113;923006;-75
2022/06/13 03:18:51;;;;;;;2.86;2.66;;;;;;;20.91;70.11;100352.37;465163;113;922880;-75
2022/06/13 03:19:58;;;;;;;3.09;2.73;;;;;;;20.91;70.04;100357.92;464828;114;922566;-74
2022/06/13 03:21:17;;;;;;;4.49;3.04;;;;;;;20.91;70.01;100357.92;464120;114;923039;-74
2022/06/13 03:22:26;;;;;;;3.61;2.72;;;;;;;20.92;70.10;100354.04;464521;114;922613;-76
2022/06/13 03:23:33;;;;;;;3.02;2.76;;;;;;;20.93;70.08;100350.16;465276;114;923117;-75
2022/06/13 03:25:05;;;;;;;5.96;2.45;;;;;;;20.94;69.96;100354.59;464950;114;922536;-75
2022/06/13 03:26:20;;;;;;;2.84;2.37;;;;;;;20.94;69.94;100357.36;464986;114;923078;-75
2022/06/13 03:27:24;;;;;;;3.62;2.92;;;;;;;;;;465354;113;922969;-74
2022/06/13 03:28:37;;;;;;;2.81;2.43;;;;;;;20.97;69.94;100354.00;462286;114;922865;-75
2022/06/13 03:29:49;;;;;;;4.18;2.67;;;;;;;20.98;69.91;100350.11;464879;114;923062;-74
2022/06/13 03:30:59;;;;;;;2.53;2.33;;;;;;;21.02;69.97;100353.95;465392;114;922637;-75
2022/06/13 03:32:15;;;;;;;2.44;2.24;;;;;;;21.06;70.04;100357.00;464997;113;922663;-75
2022/06/13 03:34:46;;;;;;;2.86;2.53;;;;;;;21.14;70.31;100357.22;463675;114;923023;-75
2022/06/13 03:35:51;;;;;;;4.53;2.36;;;;;;;21.20;70.38;100361.61;463630;114;922520;-75
2022/06/13 03:36:58;;;;;;;3.78;2.48;;;;;;;21.23;70.28;100355.47;463551;114;922753;-75
2022/06/13 03:38:04;;;;;;;3.01;2.71;;;;;;;21.27;70.20;100357.67;463277;114;923031;-76
2022/06/13 03:39:14;;;;;;;14.56;2.73;;;;;;;21.31;70.25;100355.97;463577;114;922640;-75
2022/06/13 03:40:23;;;;;;;3.24;2.49;;;;;;;21.35;70.28;100365.35;455570;116;923156;-75
2022/06/13 03:41:30;;;;;;;4.51;2.87;;;;;;;21.40;70.46;100357.81;455473;116;922648;-76
2022/06/13 03:42:57;;;;;;;4.11;3.23;;;;;;;21.44;70.43;100358.08;455404;116;922903;-75
2022/06/13 03:44:03;;;;;;;2.98;2.74;;;;;;;21.50;70.42;100354.13;455444;116;922605;-75
2022/06/13 03:45:11;;;;;;;2.68;2.39;;;;;;;21.56;70.36;100364.03;454968;116;922615;-75
2022/06/13 03:46:28;;;;;;;3.15;2.85;;;;;;;21.62;70.33;100368.41;455251;116;923463;-76
2022/06/13 03:47:38;;;;;;;2.63;2.43;;;;;;;21.67;70.33;100365.58;455061;116;922599;-75
2022/06/13 03:48:47;;;;;;;2.82;2.59;;;;;;;21.73;70.14;100363.58;455471;116;922595;-75
2022/06/13 03:49:59;;;;;;;2.58;2.40;;;;;;;21.78;69.98;100366.30;455486;116;922572;-76
2022/06/13 03:51:08;;;;;;;3.14;2.66;;;;;;;21.80;69.76;100376.00;450584;116;922522;-76
2022/06/13 03:52:14;;;;;;;2.92;2.70;;;;;;;21.83;69.73;100369.05;455412;116;923639;-73
2022/06/13 03:53:29;;;;;;;3.12;2.72;;;;;;;21.85;69.74;100364.84;455448;116;923083;-75
2022/06/13 03:54:36;;;;;;;2.96;2.76;;;;;;;21.89;69.72;100365.90;455369;116;923253;-75
2022/06/13 03:55:55;;;;;;;3.52;2.74;;;;;;;21.94;69.66;100363.09;455413;116;922604;-74
2022/06/13 03:57:10;;;;;;;2.67;2.44;;;;;;;21.96;69.47;100366.41;455456;116;922586;-74
2022/06/13 03:58:26;;;;;;;3.30;2.50;;;;;;;21.99;69.44;100360.28;455129;116;922571;-73
2022/06/13 03:59:41;;;;;;;3.03;2.73;;;;;;;22.03;69.35;100363.28;455370;116;922954;-73
2022/06/13 04:00:48;;;;;;;3.86;2.71;;;;;;;22.07;69.26;100357.95;455078;116;922464;-75
2022/06/13 04:02:06;;;;;;;2.68;2.47;;;;;;;22.12;69.25;100360.67;455336;116;922685;-74
2022/06/13 04:03:10;;;;;;;3.38;3.07;;;;;;;22.15;69.09;100360.09;455442;116;922558;-75
2022/06/13 04:04:20;;;;;;;2.98;2.72;;;;;;;22.19;69.02;100359.20;455562;116;922547;-73
2022/06/13 04:05:27;;;;;;;3.71;2.47;;;;;;;22.22;68.95;100355.02;455753;116;922592;-75
2022/06/13 04:06:36;;;;;;;3.22;2.57;;;;;;;22.26;68.92;100361.62;455496;116;922550;-74
2022/06/13 04:07:41;;;;;;;2.80;2.60;;;;;;;22.30;68.86;100357.11;455457;116;923116;-74
2022/06/13 04:08:44;;;;;;;2.83;2.41;;;;;;;22.33;68.75;100360.11;455491;116;922513;-75
2022/06/13 04:09:51;;;;;;;8.23;2.66;;;;;;;22.37;68.47;100354.80;455637;116;922611;-73
2022/06/13 04:11:03;;;;;;;2.71;2.41;;;;;;;22.40;68.22;100359.75;455164;116;922659;-75
2022/06/13 04:12:31;;;;;;;2.86;2.41;;;;;;;22.42;67.97;100350.00;460444;114;922744;-74
2022/06/13 04:13:41;;;;;;;3.54;2.78;;;;;;;22.45;67.75;100351.34;463443;114;922591;-75
2022/06/13 04:14:56;;;;;;;4.24;2.59;;;;;;;22.48;67.61;100358.27;449168;118;923279;-75
2022/06/13 04:16:20;;;;;;;2.53;2.34;;;;;;;22.49;67.53;100348.81;459460;114;922600;-75
2022/06/13 04:17:33;;;;;;;2.46;2.26;;;;;;;22.52;67.39;100349.03;463064;114;922545;-74
2022/06/13 04:18:45;;;;;;;2.91;2.59;;;;;;;22.55;67.29;100350.39;461983;114;922884;-74
2022/06/13 04:20:01;;;;;;;3.18;2.56;;;;;;;22.58;67.13;100355.34;462803;114;922552;-74
2022/06/13 04:21:14;;;;;;;3.74;2.16;;;;;;;22.59;66.93;100357.83;463495;114;922546;-76
2022/06/13 04:22:23;;;;;;;3.12;2.51;;;;;;;22.61;66.77;100355.55;462961;114;922569;-75
2022/06/13 04:23:53;;;;;;;2.70;2.44;;;;;;;22.64;66.62;100354.14;463477;114;922606;-75
2022/06/13 04:25:06;;;;;;;3.43;2.50;;;;;;;22.64;66.44;100352.19;462301;114;922574;-75
2022/06/13 04:26:18;;;;;;;3.83;2.48;;;;;;;22.64;66.24;100354.14;462944;114;922544;-77
2022/06/13 04:27:47;;;;;;;2.81;2.58;;;;;;;22.75;66.12;100362.06;480424;110;946970;-75
2022/06/13 04:28:57;;;;;;;3.28;2.83;;;;;;;22.65;66.04;100358.58;471271;112;922636;-74
2022/06/13 04:30:09;;;;;;;3.72;3.29;;;;;;;22.64;65.91;100360.53;465697;112;922619;-75
2022/06/13 04:31:11;;;;;;;3.12;2.66;;;;;;;22.64;65.88;100357.75;462740;114;923333;-75
2022/06/13 04:32:18;;;;;;;3.59;2.63;;;;;;;22.63;65.76;100356.09;463023;114;922994;-75
2022/06/13 04:33:27;;;;;;;3.74;2.58;;;;;;;22.62;65.83;100348.87;463037;114;922601;-74
2022/06/13 04:34:33;;;;;;;2.93;2.68;;;;;;;22.61;65.86;100350.00;471108;112;922557;-74
2022/06/13 04:35:38;;;;;;;3.24;2.66;;;;;;;22.62;65.90;100351.66;471081;112;922541;-75
2022/06/13 04:36:44;;;;;;;2.91;2.55;;;;;;;22.63;65.91;100346.92;471349;112;922558;-76
2022/06/13 04:37:49;;;;;;;3.44;3.04;;;;;;;22.64;65.91;100356.92;471257;112;931038;-75
2022/06/13 04:38:55;;;;;;;4.25;2.69;;;;;;;22.65;65.97;100359.41;471323;112;922634;-76
2022/06/13 04:40:02;;;;;;;3.41;2.56;;;;;;;22.66;65.96;100349.92;465087;112;922487;-75
2022/06/13 04:41:06;;;;;;;2.96;2.40;;;;;;;22.68;65.94;100347.67;463050;114;922682;-76
2022/06/13 04:42:11;;;;;;;3.00;2.78;;;;;;;22.70;65.91;100353.77;463110;114;922833;-75
2022/06/13 04:43:17;;;;;;;2.91;2.71;;;;;;;22.72;65.86;100350.70;463054;114;923125;-75
2022/06/13 04:44:22;;;;;;;2.68;2.48;;;;;;;22.74;65.82;100340.95;463096;114;922406;-75
2022/06/13 04:45:29;;;;;;;2.49;2.29;;;;;;;22.75;65.69;100342.61;463097;114;922579;-75
2022/06/13 04:46:35;;;;;;;2.95;2.38;;;;;;;22.76;65.66;100333.14;463048;114;923037;-75
2022/06/13 04:47:38;;;;;;;2.42;1.94;;;;;;;22.77;65.69;100343.11;463040;114;922551;-75
2022/06/13 04:48:44;;;;;;;2.41;1.94;;;;;;;22.78;65.56;100339.21;463294;114;922571;-74
2022/06/13 04:49:57;;;;;;;2.59;2.39;;;;;;;22.80;65.37;100341.70;463103;114;923404;-75
2022/06/13 04:51:04;;;;;;;2.48;2.14;;;;;;;22.81;65.23;100341.41;463099;114;922868;-75
2022/06/13 04:52:10;;;;;;;2.90;2.62;;;;;;;22.83;65.21;100346.64;463112;114;922832;-75
2022/06/13 04:53:26;;;;;;;2.47;2.27;;;;;;;22.85;65.18;100344.40;462879;114;922583;-75
2022/06/13 04:54:41;;;;;;;4.62;1.89;;;;;;;22.86;65.08;100340.50;462478;114;922457;-75
2022/06/13 04:55:50;;;;;;;3.15;1.72;;;;;;;22.87;64.92;100339.38;463116;114;922531;-75
2022/06/13 04:56:57;;;;;;;2.29;2.09;;;;;;;22.88;64.86;100343.78;463090;114;922584;-75
2022/06/13 04:58:00;;;;;;;2.43;1.82;;;;;;;22.89;64.83;100342.66;462915;114;922511;-75
2022/06/13 04:59:04;;;;;;;1.92;1.82;;;;;;;22.91;64.81;100343.19;463296;113;922753;-74
2022/06/13 05:00:10;;;;;;;2.25;1.96;;;;;;;22.93;64.81;100354.02;463221;114;922660;-75
2022/06/13 05:01:26;;;;;;;2.20;1.94;;;;;;;22.94;64.84;100352.86;463057;114;922594;-74
2022/06/13 05:02:35;;;;;;;2.13;1.83;;;;;;;22.97;64.88;100355.06;463044;114;923209;-74
2022/06/13 05:03:47;;;;;;;2.83;2.26;;;;;;;23.11;64.72;100355.92;477136;110;946780;-75
2022/06/13 05:04:51;;;;;;;3.75;1.57;;;;;;;23.01;64.71;100356.09;465534;114;922573;-75
2022/06/13 05:05:57;;;;;;;3.09;1.88;;;;;;;23.03;64.71;100357.46;465527;114;922576;-75
2022/06/13 05:07:07;;;;;;;3.51;2.01;;;;;;;23.03;64.65;100354.68;455472;115;922503;-73
2022/06/13 05:08:12;;;;;;;2.38;2.06;;;;;;;23.04;64.55;100356.34;450688;116;923334;-74
2022/06/13 05:09:24;;;;;;;2.74;2.19;;;;;;;23.05;64.33;100357.97;457347;116;922823;-75
2022/06/13 05:10:31;;;;;;;11.19;2.61;;;;;;;23.07;64.30;100352.11;457318;116;922621;-75
2022/06/13 05:11:41;;;;;;;4.95;2.08;;;;;;;23.08;64.38;100351.81;458482;115;922630;-74
2022/06/13 05:12:45;;;;;;;2.22;2.02;;;;;;;23.11;64.42;100361.48;451120;117;922592;-74
2022/06/13 05:13:51;;;;;;;2.16;1.89;;;;;;;23.13;64.42;100351.73;452118;117;922539;-75
2022/06/13 05:15:10;;;;;;;2.59;2.26;;;;;;;23.16;64.39;100353.06;444022;119;922568;-76
2022/06/13 05:16:16;;;;;;;4.97;2.23;;;;;;;23.19;64.28;100360.81;452036;117;922659;-77
2022/06/13 05:17:44;;;;;;;3.42;2.75;;;;;;;23.23;64.15;100364.62;442565;119;922640;-76
2022/06/13 05:18:56;;;;;;;3.31;2.53;;;;;;;23.24;64.00;100363.51;447250;117;922739;-76
2022/06/13 05:20:36;;;;;;;3.36;2.58;;;;;;;23.26;63.82;100358.48;433536;122;922657;-75
2022/06/13 05:21:55;;;;;;;3.94;2.89;;;;;;;23.27;63.75;100351.75;449780;116;922955;-74
2022/06/13 05:23:23;;;;;;;3.50;2.82;;;;;;;23.42;63.92;100361.81;477045;110;946817;-74
2022/06/13 05:24:48;;;;;;;3.93;2.82;;;;;;;23.32;63.84;100359.22;445953;118;923315;-74
2022/06/13 05:26:00;;;;;;;3.43;2.92;;;;;;;23.45;63.77;100350.89;477092;110;946701;-74
2022/06/13 05:27:06;;;;;;;3.74;3.13;;;;;;;23.36;63.61;100354.69;462333;114;922535;-74
2022/06/13 05:28:09;;;;;;;4.16;3.16;;;;;;;23.39;63.70;100357.67;457231;116;930558;-74